Time;durP1;ratioP1;P1;durP2;ratioP2;P2;SDS_P1;SDS_P2;PMS_P1;PMS_P2;Temp;Humidity;BMP_temperature;BMP_pressure;BME280_temperature;BME280_humidity;BME280_pressure;Samples;Min_cycle;Max_cycle;Signal;HPM_P1;HPM_P2
2022/05/28 00:00:35;;;;;;;14.80;10.90;;;;;;;10.03;88.58;98155.56;106269;1278;25288;-78
2022/05/28 00:03:03;;;;;;;13.80;9.30;;;;;;;10.01;88.64;98157.92;106201;1278;137989;-78
2022/05/28 00:05:29;;;;;;;14.20;9.40;;;;;;;9.99;88.38;98160.95;105823;1281;24265;-78
2022/05/28 00:07:56;;;;;;;10.60;8.50;;;;;;;9.99;88.43;98160.67;106078;1278;139522;-78
2022/05/28 00:10:22;;;;;;;11.80;8.50;;;;;;;9.98;88.28;98164.02;106065;1278;25418;-79
2022/05/28 00:12:48;;;;;;;10.90;9.20;;;;;;;9.90;87.97;98169.90;106024;1278;24300;-79
2022/05/28 00:15:16;;;;;;;12.40;9.50;;;;;;;9.82;87.87;98169.16;105964;1281;138114;-78
2022/05/28 00:17:42;;;;;;;14.80;9.40;;;;;;;9.75;87.86;98171.02;106377;1277;22551;-78
2022/05/28 00:20:09;;;;;;;13.00;8.70;;;;;;;9.72;88.28;98167.74;106204;1277;138770;-77
2022/05/28 00:22:42;;;;;;;12.30;8.70;;;;;;;9.68;88.13;98166.53;106626;1277;25281;-78
2022/05/28 00:25:12;;;;;;;15.30;8.90;;;;;;;9.65;88.29;98164.42;106363;1277;22583;-78
2022/05/28 00:27:38;;;;;;;12.00;8.90;;;;;;;9.62;88.21;98168.02;106319;1277;137588;-78
2022/05/28 00:30:06;;;;;;;13.90;9.30;;;;;;;9.58;88.30;98163.83;106260;1277;22837;-78
2022/05/28 00:32:32;;;;;;;11.80;8.50;;;;;;;9.58;88.49;98163.52;105835;1277;138152;-78
2022/05/28 00:34:59;;;;;;;13.70;8.60;;;;;;;9.57;88.58;98160.71;106336;1278;26701;-78
2022/05/28 00:37:26;;;;;;;11.40;7.90;;;;;;;9.57;88.54;98164.28;106163;1277;137243;-79
2022/05/28 00:39:56;;;;;;;12.70;8.60;;;;;;;9.53;88.72;98164.05;106587;1278;24404;-77
2022/05/28 00:42:23;;;;;;;12.60;8.10;;;;;;;9.50;88.61;98161.66;106252;1277;24322;-78
2022/05/28 00:44:49;;;;;;;12.30;8.60;;;;;;;9.48;88.53;98157.93;106125;1277;138588;-78
2022/05/28 00:47:17;;;;;;;11.20;7.70;;;;;;;9.46;88.65;98153.27;106001;1280;24333;-78
2022/05/28 00:49:43;;;;;;;14.00;9.30;;;;;;;9.42;88.69;98148.52;105985;1277;137870;-79
2022/05/28 00:52:10;;;;;;;16.40;9.60;;;;;;;9.36;88.88;98144.52;106282;1277;24375;-79
2022/05/28 00:54:44;;;;;;;17.50;10.40;;;;;;;9.33;88.80;98145.72;106252;1277;22761;-78
2022/05/28 00:57:12;;;;;;;14.90;9.60;;;;;;;9.29;88.55;98145.58;106494;1277;138149;-78
2022/05/28 00:59:38;;;;;;;13.70;9.10;;;;;;;9.25;88.69;98137.10;106442;1278;25264;-78
2022/05/28 01:02:14;;;;;;;13.50;10.00;;;;;;;9.24;88.96;98137.13;106373;1278;138082;-79
2022/05/28 01:04:54;;;;;;;17.70;9.30;;;;;;;9.24;89.02;98144.66;106513;1277;22632;-79
2022/05/28 01:07:41;;;;;;;16.30;11.30;;;;;;;9.21;89.14;98141.31;106464;1277;22974;-79
2022/05/28 01:10:30;;;;;;;12.80;9.60;;;;;;;9.22;89.33;98135.45;106083;1277;22559;-78
2022/05/28 01:13:31;;;;;;;11.60;9.60;;;;;;;9.22;89.12;98129.53;106121;1277;24424;-79
2022/05/28 01:16:19;;;;;;;20.10;10.40;;;;;;;9.18;89.36;98137.14;105601;1277;137810;-78
2022/05/28 01:18:59;;;;;;;16.00;10.20;;;;;;;9.20;89.79;98134.50;106160;1281;22560;-78
2022/05/28 01:21:41;;;;;;;16.30;10.30;;;;;;;9.26;89.76;98134.34;106309;1277;138527;-79
2022/05/28 01:24:40;;;;;;;13.70;9.30;;;;;;;9.32;89.76;98130.39;106389;1277;23046;-79
2022/05/28 01:27:13;;;;;;;16.50;10.80;;;;;;;9.36;89.48;98130.33;107111;1277;137559;-79
2022/05/28 01:29:50;;;;;;;16.10;9.40;;;;;;;9.39;89.09;98125.05;106374;1277;22714;-78
2022/05/28 01:32:18;;;;;;;15.10;10.70;;;;;;;9.37;89.03;98128.61;105946;1277;138913;-78
2022/05/28 01:34:45;;;;;;;11.70;8.70;;;;;;;9.38;89.02;98126.52;106754;1277;22544;-78
2022/05/28 01:37:14;;;;;;;13.90;10.20;;;;;;;9.40;88.86;98121.38;105958;1278;25388;-78
2022/05/28 01:39:46;;;;;;;16.90;10.50;;;;;;;9.41;88.68;98118.84;106008;1278;137798;-79
2022/05/28 01:42:14;;;;;;;17.80;10.50;;;;;;;9.40;88.37;98123.39;106799;1277;22590;-79
2022/05/28 01:44:44;;;;;;;14.70;9.80;;;;;;;9.36;88.03;98120.76;106097;1277;138613;-79
2022/05/28 01:47:14;;;;;;;14.30;9.00;;;;;;;9.32;87.96;98124.70;106493;1277;25386;-79
2022/05/28 01:49:45;;;;;;;13.40;9.60;;;;;;;9.28;88.09;98129.88;106787;1278;22575;-79
2022/05/28 01:52:15;;;;;;;14.10;10.10;;;;;;;9.23;87.67;98130.86;106712;1277;136960;-79
2022/05/28 01:54:45;;;;;;;15.30;10.10;;;;;;;9.12;87.65;98129.75;106570;1277;22544;-79
2022/05/28 01:57:13;;;;;;;12.50;9.60;;;;;;;9.06;87.97;98129.58;105906;1277;138212;-79
2022/05/28 01:59:40;;;;;;;13.80;9.80;;;;;;;8.99;87.61;98127.87;106131;1277;25419;-79
2022/05/28 02:02:11;;;;;;;13.60;10.60;;;;;;;8.90;87.76;98125.59;105832;1277;138215;-79
2022/05/28 02:04:39;;;;;;;13.90;10.40;;;;;;;8.86;88.17;98129.58;106756;1277;24609;-79
2022/05/28 02:07:08;;;;;;;16.20;11.60;;;;;;;8.81;88.19;98121.99;106201;1276;26610;-79
2022/05/28 02:09:45;;;;;;;17.80;13.20;;;;;;;8.73;88.11;98119.88;106206;1276;137408;-79
2022/05/28 02:12:22;;;;;;;20.10;13.00;;;;;;;8.67;88.33;98127.27;106218;1277;25384;-79
2022/05/28 02:14:57;;;;;;;19.50;12.70;;;;;;;8.60;88.11;98125.66;106070;1277;138533;-79
2022/05/28 02:17:53;;;;;;;15.90;10.70;;;;;;;8.52;88.42;98126.85;106282;1278;25390;-79
2022/05/28 02:20:39;;;;;;;15.00;11.00;;;;;;;8.46;88.61;98132.46;106291;1278;138050;-79
2022/05/28 02:23:19;;;;;;;20.60;13.50;;;;;;;8.41;88.89;98132.23;106274;1277;25261;-79
2022/05/28 02:25:53;;;;;;;17.30;12.70;;;;;;;8.38;89.03;98137.42;106928;1277;22566;-78
2022/05/28 02:28:23;;;;;;;16.70;12.50;;;;;;;8.39;89.70;98143.74;105923;1277;137815;-79
2022/05/28 02:31:02;;;;;;;17.10;12.00;;;;;;;8.41;89.43;98146.34;106512;1277;26182;-79
2022/05/28 02:33:30;;;;;;;;;;;;;;;8.42;89.61;98142.58;106046;1278;137872;-79
2022/05/28 02:35:56;;;;;;;21.70;15.30;;;;;;;8.45;90.20;98138.02;106294;1277;25447;-79
2022/05/28 02:38:23;;;;;;;24.90;15.20;;;;;;;8.48;90.09;98137.45;105809;1277;137923;-79
2022/05/28 02:40:49;;;;;;;22.20;13.90;;;;;;;8.51;90.27;98128.46;105981;1277;25509;-79
2022/05/28 02:43:16;;;;;;;18.70;15.00;;;;;;;8.55;89.99;98130.10;106646;1278;25395;-79
2022/05/28 02:45:44;;;;;;;21.30;14.00;;;;;;;8.56;90.13;98118.84;105904;1277;137722;-78
2022/05/28 02:48:11;;;;;;;23.30;15.10;;;;;;;8.62;90.20;98116.73;106219;1277;24558;-79
2022/05/28 02:50:37;;;;;;;22.30;15.30;;;;;;;8.68;90.41;98118.64;105902;1277;138207;-79
2022/05/28 02:53:07;;;;;;;21.20;15.00;;;;;;;8.68;90.02;98113.87;106242;1276;22584;-79
2022/05/28 02:55:34;;;;;;;18.40;14.90;;;;;;;8.71;89.88;98109.37;106033;1277;22594;-79
2022/05/28 02:58:02;;;;;;;28.00;16.20;;;;;;;8.76;90.08;98115.77;105910;1278;137708;-78
2022/05/28 03:00:28;;;;;;;28.50;17.20;;;;;;;8.82;90.28;98120.38;106174;1277;25389;-79
2022/05/28 03:02:54;;;;;;;23.00;16.40;;;;;;;8.86;90.08;98122.57;105774;1277;137546;-78
2022/05/28 03:05:24;;;;;;;23.60;17.40;;;;;;;8.85;89.50;98127.81;106453;1277;22939;-79
2022/05/28 03:07:51;;;;;;;25.50;16.00;;;;;;;8.81;89.51;98134.37;106290;1277;22546;-79
2022/05/28 03:10:18;;;;;;;23.20;16.50;;;;;;;8.81;89.63;98129.39;106039;1277;138526;-79
2022/05/28 03:12:44;;;;;;;19.70;14.90;;;;;;;8.82;89.74;98122.72;106346;1276;22639;-78
2022/05/28 03:15:11;;;;;;;23.80;17.50;;;;;;;8.83;89.89;98123.77;105734;1279;137768;-79
2022/05/28 03:17:38;;;;;;;22.10;15.40;;;;;;;8.87;90.02;98121.08;106669;1277;22566;-78
2022/05/28 03:20:07;;;;;;;21.60;15.10;;;;;;;8.89;89.95;98115.69;106518;1277;142311;-78
2022/05/28 03:22:33;;;;;;;27.60;16.20;;;;;;;8.94;90.02;98122.77;106098;1277;25330;-78
2022/05/28 03:24:59;;;;;;;20.60;14.70;;;;;;;8.99;89.91;98122.33;106234;1277;22547;-78
2022/05/28 03:27:25;;;;;;;22.70;15.60;;;;;;;9.05;90.00;98118.48;106035;1277;138050;-78
2022/05/28 03:29:53;;;;;;;29.00;15.70;;;;;;;9.08;89.83;98114.09;105894;1277;22750;-78
2022/05/28 03:32:20;;;;;;;21.80;15.20;;;;;;;9.12;89.74;98115.79;105870;1279;138967;-78
2022/05/28 03:34:46;;;;;;;19.80;14.50;;;;;;;9.17;89.83;98113.05;105997;1277;24237;-81
2022/05/28 03:37:12;;;;;;;25.80;15.30;;;;;;;9.19;89.58;98119.11;106451;1277;22721;-80
2022/05/28 03:39:39;;;;;;;22.10;15.30;;;;;;;9.23;89.68;98124.84;105822;1278;137971;-80
2022/05/28 03:42:05;;;;;;;30.80;15.90;;;;;;;9.27;89.58;98125.06;106206;1277;22715;-79
2022/05/28 03:44:31;;;;;;;23.30;15.80;;;;;;;9.29;89.43;98123.75;105947;1278;138653;-79
2022/05/28 03:47:00;;;;;;;23.60;15.70;;;;;;;9.33;89.47;98122.89;106406;1277;22573;-78
2022/05/28 03:49:29;;;;;;;21.00;14.30;;;;;;;9.37;89.37;98123.00;106252;1277;23381;-79
2022/05/28 03:51:56;;;;;;;22.90;15.50;;;;;;;9.40;89.29;98117.20;106012;1277;137357;-78
2022/05/28 03:54:23;;;;;;;24.10;15.30;;;;;;;9.42;89.04;98114.94;106415;1277;22592;-79
2022/05/28 03:56:53;;;;;;;19.50;14.30;;;;;;;9.43;88.96;98114.80;106015;1277;138046;-79
2022/05/28 03:59:19;;;;;;;20.50;14.10;;;;;;;9.45;88.92;98116.41;106001;1277;26794;-78
2022/05/28 04:01:45;;;;;;;19.20;13.40;;;;;;;9.48;88.79;98110.30;106133;1277;22541;-78
2022/05/28 04:04:12;;;;;;;19.40;14.60;;;;;;;9.53;88.82;98108.86;106084;1277;137296;-79
2022/05/28 04:06:38;;;;;;;19.90;14.00;;;;;;;9.56;88.74;98107.57;105931;1277;23206;-78
2022/05/28 04:09:06;;;;;;;17.70;13.10;;;;;;;9.62;89.06;98112.88;106126;1277;138135;-78
2022/05/28 04:11:33;;;;;;;18.60;13.20;;;;;;;9.69;88.88;98101.89;106348;1277;25504;-78
2022/05/28 04:13:59;;;;;;;19.10;13.40;;;;;;;9.71;88.64;98100.84;105834;1278;137988;-78
2022/05/28 04:16:27;;;;;;;18.70;13.10;;;;;;;9.72;88.38;98097.98;106210;1277;25388;-78
2022/05/28 04:18:53;;;;;;;21.70;13.10;;;;;;;9.71;88.38;98100.18;106237;1277;24224;-78
2022/05/28 04:21:19;;;;;;;20.30;13.00;;;;;;;9.70;88.24;98092.95;105848;1277;138227;-78
2022/05/28 04:23:45;;;;;;;17.70;12.90;;;;;;;9.73;88.45;98099.19;106526;1277;22537;-78
2022/05/28 04:26:11;;;;;;;17.80;13.00;;;;;;;9.79;88.27;98107.26;106085;1278;139455;-78
2022/05/28 04:28:38;;;;;;;18.60;12.70;;;;;;;9.83;88.34;98103.63;106260;1277;24237;-79
2022/05/28 04:31:04;;;;;;;22.30;14.40;;;;;;;9.89;88.42;98106.01;106045;1277;25329;-79
2022/05/28 04:33:30;;;;;;;19.30;12.60;;;;;;;9.95;88.28;98108.21;106009;1277;137304;-79
2022/05/28 04:35:56;;;;;;;17.50;12.30;;;;;;;10.02;88.42;98105.11;106117;1277;24301;-79
2022/05/28 04:38:23;;;;;;;18.20;11.90;;;;;;;10.11;88.38;98105.52;105856;1277;138467;-79
2022/05/28 04:40:50;;;;;;;16.30;11.50;;;;;;;10.16;88.15;98110.79;106060;1277;22699;-80
2022/05/28 04:43:18;;;;;;;17.00;12.60;;;;;;;10.17;88.00;98113.42;106350;1276;24330;-79
2022/05/28 04:45:48;;;;;;;18.20;12.10;;;;;;;10.21;88.15;98117.52;106803;1277;137992;-79
2022/05/28 04:48:16;;;;;;;17.40;11.10;;;;;;;10.23;88.13;98119.06;106190;1277;22563;-80
2022/05/28 04:50:42;;;;;;;14.10;11.10;;;;;;;10.24;87.62;98120.11;106480;1277;139562;-80
2022/05/28 04:53:08;;;;;;;16.10;10.90;;;;;;;10.25;87.36;98116.58;106257;1277;22658;-80
2022/05/28 04:55:34;;;;;;;16.60;11.30;;;;;;;10.26;87.44;98109.85;106245;1277;22653;-80
2022/05/28 04:58:01;;;;;;;16.60;10.20;;;;;;;10.29;87.22;98103.13;106161;1277;137875;-80
2022/05/28 05:00:27;;;;;;;14.70;10.00;;;;;;;10.30;87.03;98102.17;106598;1277;24358;-79
2022/05/28 05:02:54;;;;;;;15.30;10.30;;;;;;;10.33;86.95;98101.64;106012;1277;138729;-79
2022/05/28 05:05:20;;;;;;;17.40;10.60;;;;;;;10.39;87.23;98103.69;106180;1278;22636;-79
2022/05/28 05:07:46;;;;;;;15.70;11.70;;;;;;;10.44;86.80;98102.39;106166;1277;22721;-77
2022/05/28 05:10:27;;;;;;;15.50;10.80;;;;;;;10.49;86.89;98104.85;105848;1277;138440;-80
2022/05/28 05:12:53;;;;;;;12.40;9.60;;;;;;;10.54;86.88;98098.76;106106;1277;25640;-78
2022/05/28 05:15:20;;;;;;;12.40;8.90;;;;;;;10.59;86.72;98099.09;106124;1277;138143;-78
2022/05/28 05:17:46;;;;;;;15.20;10.30;;;;;;;10.61;85.86;98099.77;105693;1280;22671;-78
2022/05/28 05:20:13;;;;;;;13.90;10.20;;;;;;;10.59;85.80;98095.89;105911;1277;137741;-78
2022/05/28 05:22:40;;;;;;;13.50;9.40;;;;;;;10.59;85.90;98097.45;105859;1278;22593;-79
2022/05/28 05:25:07;;;;;;;12.80;9.40;;;;;;;10.59;85.53;98096.85;105981;1276;22628;-78
2022/05/28 05:27:33;;;;;;;12.30;9.00;;;;;;;10.63;86.06;98096.14;106335;1277;138275;-78
2022/05/28 05:30:00;;;;;;;12.40;10.00;;;;;;;10.66;86.19;98094.44;105939;1276;22548;-78
2022/05/28 05:32:27;;;;;;;16.30;10.10;;;;;;;10.70;86.05;98095.66;105992;1277;137846;-78
2022/05/28 05:34:53;;;;;;;15.90;9.50;;;;;;;10.73;86.22;98096.85;106058;1277;22558;-78
2022/05/28 05:37:19;;;;;;;14.20;8.10;;;;;;;10.79;86.26;98096.21;106283;1277;22879;-79
2022/05/28 05:39:46;;;;;;;13.00;8.70;;;;;;;10.91;86.57;98097.48;106545;1277;138329;-78
2022/05/28 05:42:12;;;;;;;13.70;8.80;;;;;;;11.04;86.31;98100.89;106098;1277;25235;-78
2022/05/28 05:44:39;;;;;;;11.20;8.20;;;;;;;11.08;85.61;98106.66;105874;1280;138355;-79
2022/05/28 05:47:06;;;;;;;11.90;8.70;;;;;;;11.14;85.59;98102.52;106123;1277;22549;-79
2022/05/28 05:49:33;;;;;;;11.90;7.80;;;;;;;11.21;85.51;98108.09;107038;1277;22694;-79
2022/05/28 05:52:00;;;;;;;10.80;5.80;;;;;;;11.29;84.44;98107.61;106325;1277;138341;-79
2022/05/28 05:54:26;;;;;;;9.80;5.70;;;;;;;11.31;83.76;98115.54;106657;1277;24387;-80
2022/05/28 05:56:53;;;;;;;8.90;5.60;;;;;;;11.32;82.58;98114.67;106355;1277;137529;-80
2022/05/28 05:59:20;;;;;;;9.30;5.20;;;;;;;11.34;81.97;98112.41;106024;1277;25337;-79
2022/05/28 06:01:46;;;;;;;9.00;5.20;;;;;;;11.36;80.95;98120.50;106459;1277;22563;-79
2022/05/28 06:04:13;;;;;;;9.00;5.40;;;;;;;11.34;79.67;98117.26;106329;1277;137080;-80
2022/05/28 06:06:39;;;;;;;8.50;4.70;;;;;;;11.34;79.25;98117.92;106755;1277;22544;-79
2022/05/28 06:09:06;;;;;;;8.30;4.30;;;;;;;11.41;78.63;98111.71;106273;1277;137575;-81
2022/05/28 06:11:33;;;;;;;10.30;5.30;;;;;;;11.46;77.97;98111.70;106666;1275;22577;-80
2022/05/28 06:13:59;;;;;;;9.30;5.40;;;;;;;11.47;77.79;98111.16;106317;1276;22847;-80
2022/05/28 06:16:26;;;;;;;11.50;5.20;;;;;;;11.48;77.55;98109.52;106488;1277;137157;-79
2022/05/28 06:18:53;;;;;;;8.50;4.90;;;;;;;11.49;77.45;98104.15;106320;1277;26623;-79
2022/05/28 06:21:19;;;;;;;13.10;5.40;;;;;;;11.51;76.67;98107.59;106589;1277;137473;-80
2022/05/28 06:23:45;;;;;;;8.60;5.10;;;;;;;11.53;76.29;98104.19;106503;1276;22609;-81
2022/05/28 06:26:12;;;;;;;9.70;4.80;;;;;;;11.59;76.02;98106.46;106365;1276;137305;-81
2022/05/28 06:28:40;;;;;;;7.50;4.50;;;;;;;11.62;74.96;98102.61;106704;1276;24330;-78
2022/05/28 06:31:09;;;;;;;9.40;3.70;;;;;;;11.65;74.42;98102.69;106247;1277;26624;-80
2022/05/28 06:33:36;;;;;;;9.80;3.40;;;;;;;11.68;72.85;98101.45;106063;1277;138124;-80
2022/05/28 06:36:05;;;;;;;6.10;3.00;;;;;;;11.70;72.29;98105.57;106463;1277;22558;-80
2022/05/28 06:38:32;;;;;;;7.30;3.40;;;;;;;11.68;71.86;98106.15;106477;1277;137639;-80
2022/05/28 06:40:59;;;;;;;8.60;3.10;;;;;;;11.75;71.07;98106.04;106506;1277;22570;-79
2022/05/28 06:43:26;;;;;;;8.80;4.10;;;;;;;11.85;71.90;98103.88;106440;1277;25499;-79
2022/05/28 06:45:54;;;;;;;9.90;3.40;;;;;;;11.95;72.12;98101.85;106492;1277;137124;-80
2022/05/28 06:48:21;;;;;;;9.70;4.30;;;;;;;12.05;71.27;98098.64;106615;1277;24315;-80
2022/05/28 06:51:04;;;;;;;12.40;3.60;;;;;;;12.10;70.78;98094.91;106310;1277;137975;-79
2022/05/28 06:53:37;;;;;;;7.60;2.80;;;;;;;12.17;71.49;98091.17;106047;1277;22691;-80
2022/05/28 06:56:05;;;;;;;6.40;2.90;;;;;;;12.28;70.47;98095.39;106312;1277;138114;-80
2022/05/28 06:58:32;;;;;;;10.80;3.60;;;;;;;12.38;70.84;98089.92;106470;1277;22544;-80
2022/05/28 07:00:59;;;;;;;7.00;4.10;;;;;;;12.51;70.56;98083.54;106257;1277;23056;-79
2022/05/28 07:03:28;;;;;;;10.30;3.80;;;;;;;12.65;69.83;98080.75;105994;1277;138056;-80
2022/05/28 07:05:59;;;;;;;7.00;3.90;;;;;;;12.78;69.62;98081.50;106218;1277;24741;-80
2022/05/28 07:08:26;;;;;;;9.00;3.30;;;;;;;12.83;69.36;98080.37;106804;1279;137898;-80
2022/05/28 07:10:55;;;;;;;6.90;3.10;;;;;;;12.95;67.98;98080.30;106290;1279;24341;-81
2022/05/28 07:13:22;;;;;;;;;;;;;;;13.04;66.68;98078.29;106360;1278;22547;-80
2022/05/28 07:15:48;;;;;;;4.90;2.10;;;;;;;13.04;66.63;98072.48;106804;1277;124091;-80
2022/05/28 07:18:16;;;;;;;6.20;2.40;;;;;;;13.11;66.49;98065.89;106966;1277;24315;-80
2022/05/28 07:20:42;;;;;;;3.30;2.00;;;;;;;13.26;66.55;98061.20;106337;1277;137685;-81
2022/05/28 07:23:15;;;;;;;7.60;2.40;;;;;;;13.29;65.22;98063.34;106519;1277;22585;-80
2022/05/28 07:25:43;;;;;;;8.20;2.00;;;;;;;13.25;64.46;98061.64;107454;1277;22498;-80
2022/05/28 07:30:56;;;;;;;5.90;1.50;;;;;;;13.21;61.62;98057.80;106632;1277;22600;-80
2022/05/28 07:33:25;;;;;;;6.50;1.50;;;;;;;13.22;60.84;98063.61;106640;1277;138349;-80
2022/05/28 07:35:59;;;;;;;6.70;1.40;;;;;;;13.32;60.47;98061.34;106417;1277;22707;-80
2022/05/28 07:38:27;;;;;;;2.60;1.70;;;;;;;13.37;60.41;98060.41;106226;1277;137322;-80
2022/05/28 07:40:54;;;;;;;4.50;1.10;;;;;;;13.40;60.13;98057.24;106516;1277;22723;-81
2022/05/28 07:43:21;;;;;;;6.80;1.60;;;;;;;13.43;60.12;98058.01;106654;1277;23057;-81
2022/05/28 07:45:48;;;;;;;4.60;1.00;;;;;;;13.40;59.12;98054.23;106394;1277;138387;-80
2022/05/28 07:48:16;;;;;;;6.50;1.40;;;;;;;13.35;59.57;98054.34;106690;1277;22639;-86
2022/05/28 07:50:43;;;;;;;6.70;1.30;;;;;;;13.33;60.40;98056.20;106000;1277;137535;-77
2022/05/28 07:53:10;;;;;;;3.30;1.00;;;;;;;13.40;58.35;98062.34;106255;1277;23312;-90
2022/05/28 07:55:37;;;;;;;4.20;0.90;;;;;;;13.40;56.88;98057.30;106682;1277;22647;-84
2022/05/28 07:58:11;;;;;;;4.10;0.80;;;;;;;13.40;57.17;98062.00;106400;1276;137988;-79
2022/05/28 08:00:41;;;;;;;3.40;0.90;;;;;;;13.55;55.13;98059.48;106536;1276;24381;-79
2022/05/28 08:03:08;;;;;;;4.00;0.70;;;;;;;13.75;55.01;98054.44;106148;1276;137629;-79
2022/05/28 08:05:36;;;;;;;8.70;1.30;;;;;;;13.95;55.36;98055.66;106004;1277;22648;-78
2022/05/28 08:08:05;;;;;;;4.00;0.80;;;;;;;14.12;54.35;98051.34;106077;1277;137232;-78
2022/05/28 08:10:31;;;;;;;5.70;1.00;;;;;;;14.25;52.93;98052.57;106152;1277;22780;-80
2022/05/28 08:13:03;;;;;;;2.70;0.80;;;;;;;14.29;52.44;98055.45;106238;1277;25336;-80
2022/05/28 08:15:29;;;;;;;3.00;0.90;;;;;;;14.30;52.03;98055.79;106035;1277;137206;-80
2022/05/28 08:17:56;;;;;;;5.70;1.20;;;;;;;14.24;53.41;98053.44;106285;1277;25346;-80
2022/05/28 08:23:09;;;;;;;3.10;1.00;;;;;;;14.22;52.69;98051.04;106276;1277;23228;-79
2022/05/28 08:25:40;;;;;;;5.50;1.10;;;;;;;14.30;53.11;98050.03;106867;1277;30461;-81
2022/05/28 08:28:09;;;;;;;3.00;0.80;;;;;;;14.41;52.27;98053.98;106249;1277;137112;-80
2022/05/28 08:30:36;;;;;;;3.20;1.00;;;;;;;14.53;52.51;98047.05;105999;1277;22593;-80
2022/05/28 08:33:03;;;;;;;4.80;1.00;;;;;;;14.61;52.38;98040.02;106370;1277;137684;-80
2022/05/28 08:35:29;;;;;;;5.30;0.80;;;;;;;14.70;52.66;98043.59;106726;1277;22627;-80
2022/05/28 08:37:55;;;;;;;3.70;0.60;;;;;;;14.70;49.34;98044.90;106272;1277;22587;-80
2022/05/28 08:40:23;;;;;;;2.80;0.80;;;;;;;14.72;49.42;98043.96;106369;1277;137198;-80
2022/05/28 08:42:50;;;;;;;4.00;0.80;;;;;;;14.71;49.43;98046.05;106373;1277;25532;-80
2022/05/28 08:45:17;;;;;;;4.40;0.80;;;;;;;14.68;49.11;98042.39;105960;1277;137216;-81
2022/05/28 08:48:00;;;;;;;4.30;0.60;;;;;;;14.66;49.16;98041.36;106078;1278;22550;-80
2022/05/28 08:50:28;;;;;;;4.10;1.10;;;;;;;14.67;50.01;98043.60;106378;1277;137514;-79
2022/05/28 08:53:11;;;;;;;2.10;0.70;;;;;;;14.75;50.52;98044.05;105979;1277;22603;-80
2022/05/28 08:55:45;;;;;;;3.90;0.90;;;;;;;14.77;49.97;98041.58;106355;1277;24338;-81
2022/05/28 08:58:18;;;;;;;2.90;0.80;;;;;;;14.78;50.21;98036.80;106130;1277;137394;-80
2022/05/28 09:01:00;;;;;;;4.80;0.90;;;;;;;14.75;49.22;98031.89;106265;1277;25384;-80
2022/05/28 09:03:39;;;;;;;3.40;0.80;;;;;;;14.82;49.91;98035.20;106440;1277;137665;-81
2022/05/28 09:06:15;;;;;;;4.70;0.80;;;;;;;15.02;50.19;98043.13;106139;1277;23791;-80
2022/05/28 09:08:44;;;;;;;2.60;0.90;;;;;;;15.21;49.82;98039.60;106282;1278;137305;-80
2022/05/28 09:11:20;;;;;;;3.70;1.10;;;;;;;15.43;49.42;98033.92;106244;1277;25412;-81
2022/05/28 09:13:53;;;;;;;4.30;1.00;;;;;;;15.72;49.68;98036.00;106224;1278;25384;-81
2022/05/28 09:16:30;;;;;;;6.10;0.90;;;;;;;15.96;49.64;98034.30;106211;1277;137287;-80
2022/05/28 09:19:02;;;;;;;1.60;0.50;;;;;;;16.16;48.64;98029.41;106179;1277;22566;-80
2022/05/28 09:21:29;;;;;;;2.20;0.60;;;;;;;16.14;46.77;98034.20;106522;1277;137515;-80
2022/05/28 09:24:05;;;;;;;2.30;0.80;;;;;;;16.05;46.33;98032.98;106229;1277;22553;-80
2022/05/28 09:27:04;;;;;;;3.30;0.80;;;;;;;15.88;46.78;98027.78;106320;1280;137547;-81
2022/05/28 09:30:08;;;;;;;6.40;1.00;;;;;;;15.83;47.11;98028.99;106066;1277;25502;-81
2022/05/28 09:33:11;;;;;;;5.40;0.70;;;;;;;16.06;46.79;98023.36;105853;1277;137240;-79
2022/05/28 09:36:03;;;;;;;5.20;1.10;;;;;;;16.28;46.24;98032.23;106240;1277;23188;-80
2022/05/28 09:38:33;;;;;;;3.70;0.80;;;;;;;16.47;46.72;98034.27;106036;1277;137846;-80
2022/05/28 09:41:22;;;;;;;3.40;0.70;;;;;;;16.60;45.73;98027.49;105982;1277;22570;-78
2022/05/28 09:44:02;;;;;;;3.40;1.10;;;;;;;16.51;45.88;98030.14;105919;1277;23925;-80
2022/05/28 09:46:34;;;;;;;1.90;0.80;;;;;;;16.55;46.75;98024.83;105823;1277;137098;-79
2022/05/28 09:49:19;;;;;;;1.60;0.60;;;;;;;16.69;46.48;98022.98;106486;1277;25360;-80
2022/05/28 09:51:56;;;;;;;4.80;0.70;;;;;;;16.83;44.96;98022.59;106309;1278;137047;-81
2022/05/28 09:54:27;;;;;;;1.80;0.70;;;;;;;16.76;44.19;98017.17;106159;1277;22709;-80
2022/05/28 09:57:01;;;;;;;5.10;0.80;;;;;;;16.50;43.78;98017.13;106273;1277;137457;-80
2022/05/28 09:59:36;;;;;;;2.40;1.00;;;;;;;16.33;43.76;98012.34;106147;1277;22821;-80
2022/05/28 10:02:07;;;;;;;3.40;0.80;;;;;;;16.41;44.59;98014.39;106434;1276;22718;-81
2022/05/28 10:05:11;;;;;;;2.30;0.70;;;;;;;16.55;44.27;98011.84;106194;1277;136936;-80
2022/05/28 10:07:42;;;;;;;5.00;1.30;;;;;;;16.52;45.52;98013.54;106125;1277;30211;-79
2022/05/28 10:10:30;;;;;;;4.20;1.00;;;;;;;16.57;45.66;98010.27;106345;1277;137158;-80
2022/05/28 10:13:16;;;;;;;3.60;1.20;;;;;;;16.64;45.34;98017.83;106252;1280;24311;-80
2022/05/28 10:15:52;;;;;;;3.10;0.90;;;;;;;16.46;44.76;98008.28;106016;1280;138486;-80
2022/05/28 10:18:37;;;;;;;2.50;1.00;;;;;;;16.38;44.82;98006.35;106194;1277;25495;-80
2022/05/28 10:21:11;;;;;;;3.00;0.90;;;;;;;16.62;43.89;97989.86;106178;1277;137230;-80
2022/05/28 10:23:44;;;;;;;3.50;0.90;;;;;;;16.80;43.02;97993.91;106462;1277;24427;-80
2022/05/28 10:26:19;;;;;;;5.00;0.80;;;;;;;17.07;42.90;98000.13;106916;1277;22584;-81
2022/05/28 10:28:55;;;;;;;3.00;0.80;;;;;;;17.34;42.35;97988.76;106317;1277;137257;-81
2022/05/28 10:31:28;;;;;;;5.10;1.10;;;;;;;17.55;42.63;97984.30;106071;1277;25643;-79
2022/05/28 10:33:56;;;;;;;3.60;1.00;;;;;;;17.66;42.34;97983.78;105814;1277;137148;-80
2022/05/28 10:36:37;;;;;;;2.90;1.00;;;;;;;17.79;42.96;97982.22;106509;1278;22641;-80
2022/05/28 10:39:19;;;;;;;2.00;1.00;;;;;;;17.99;42.67;97978.13;106103;1277;137188;-81
2022/05/28 10:41:51;;;;;;;4.00;0.90;;;;;;;18.08;42.38;97983.91;106397;1277;22730;-80
2022/05/28 10:44:19;;;;;;;3.30;0.60;;;;;;;17.83;40.12;97985.69;106240;1278;25382;-80
2022/05/28 10:46:49;;;;;;;4.70;0.60;;;;;;;17.41;40.04;97989.63;105893;1279;137218;-81
2022/05/28 10:49:39;;;;;;;2.80;0.90;;;;;;;17.00;41.01;97979.60;106294;1277;25702;-81
2022/05/28 10:52:44;;;;;;;4.60;0.70;;;;;;;16.70;42.20;97981.45;106148;1277;137297;-80
2022/05/28 10:55:17;;;;;;;2.10;0.60;;;;;;;16.67;43.92;97980.84;106175;1275;23930;-80
2022/05/28 10:57:59;;;;;;;2.50;0.90;;;;;;;16.98;44.57;97982.21;106036;1277;137158;-81
2022/05/28 11:00:47;;;;;;;2.80;0.60;;;;;;;17.28;42.31;97976.02;106110;1279;22566;-81
2022/05/28 11:03:34;;;;;;;3.10;0.60;;;;;;;17.56;42.23;97973.89;106059;1277;137203;-81
2022/05/28 11:06:27;;;;;;;3.30;0.90;;;;;;;17.87;41.73;97964.20;106245;1278;24994;-81
2022/05/28 11:09:04;;;;;;;3.20;0.70;;;;;;;18.14;40.91;97971.11;106247;1278;137476;-81
2022/05/28 11:11:37;;;;;;;2.70;0.70;;;;;;;18.10;39.49;97971.13;106568;1277;30758;-81
2022/05/28 11:14:32;;;;;;;4.10;0.70;;;;;;;17.87;38.48;97973.50;105912;1276;280182;-80
2022/05/28 11:17:14;;;;;;;1.30;0.60;;;;;;;17.66;39.12;97976.58;106239;1276;137180;-81
2022/05/28 11:19:54;;;;;;;2.00;0.60;;;;;;;17.47;39.86;97981.80;106331;1276;25338;-81
2022/05/28 11:22:50;;;;;;;3.70;1.00;;;;;;;17.47;40.69;97985.61;106219;1277;137361;-82
2022/05/28 11:25:29;;;;;;;3.70;0.90;;;;;;;17.42;41.28;97987.23;106377;1277;22599;-80
2022/05/28 11:28:10;;;;;;;5.30;1.00;;;;;;;17.56;41.13;97991.23;106129;1277;137676;-81
2022/05/28 11:30:45;;;;;;;2.60;0.50;;;;;;;17.51;41.34;97990.73;106041;1276;22824;-79
2022/05/28 11:33:18;;;;;;;6.00;1.00;;;;;;;17.47;40.98;97998.05;106044;1277;137305;-80
2022/05/28 11:35:58;;;;;;;2.70;0.70;;;;;;;17.23;40.88;98011.37;106116;1277;25312;-81
2022/05/28 11:38:51;;;;;;;3.40;0.80;;;;;;;17.00;42.12;98028.46;105938;1277;22755;-80
2022/05/28 11:41:36;;;;;;;1.50;0.40;;;;;;;16.67;41.88;98054.17;106051;1277;138002;-80
2022/05/28 11:44:35;;;;;;;1.30;0.40;;;;;;;15.69;43.44;98066.80;106157;1277;22644;-82